createdAt,value
2018-07-26T00:00:53.916Z,99.90
2018-07-26T00:03:22.707Z,99.90
2018-07-26T00:05:51.492Z,99.90
2018-07-26T00:08:20.291Z,99.90
2018-07-26T00:10:49.091Z,99.90
2018-07-26T00:13:17.876Z,99.90
2018-07-26T00:15:46.660Z,99.90
2018-07-26T00:18:15.451Z,99.90
2018-07-26T00:20:44.244Z,99.90
2018-07-26T00:23:13.032Z,99.90
2018-07-26T00:25:41.820Z,99.90
2018-07-26T00:28:10.667Z,99.90
2018-07-26T00:30:39.437Z,99.90
2018-07-26T00:33:08.203Z,99.90
2018-07-26T00:35:36.987Z,99.90
2018-07-26T00:38:05.887Z,99.90
2018-07-26T00:40:34.700Z,99.90
2018-07-26T00:43:03.531Z,99.90
2018-07-26T00:45:33.689Z,99.90
2018-07-26T00:48:03.074Z,99.90
2018-07-26T00:50:31.992Z,99.90
2018-07-26T00:53:00.789Z,99.90
2018-07-26T00:55:29.752Z,99.90
2018-07-26T00:57:58.570Z,99.90
2018-07-26T01:00:27.368Z,99.90
2018-07-26T01:02:56.127Z,99.90
2018-07-26T01:05:24.951Z,99.90
2018-07-26T01:07:53.732Z,99.90
2018-07-26T01:10:22.534Z,99.90
2018-07-26T01:12:51.311Z,99.90
2018-07-26T01:15:20.135Z,99.90
2018-07-26T01:17:48.923Z,99.90
2018-07-26T01:20:17.711Z,99.90
2018-07-26T01:22:46.479Z,99.90
2018-07-26T01:25:15.284Z,99.90
2018-07-26T01:27:44.071Z,99.90
2018-07-26T01:30:12.841Z,99.90
2018-07-26T01:32:41.658Z,99.90
2018-07-26T01:35:10.444Z,99.90
2018-07-26T01:37:39.227Z,99.90
2018-07-26T01:40:08.073Z,99.90
2018-07-26T01:42:49.269Z,99.90
2018-07-26T01:45:18.060Z,99.90
2018-07-26T01:47:46.871Z,99.90
2018-07-26T01:50:15.684Z,99.90
2018-07-26T01:52:44.468Z,99.90
2018-07-26T01:55:13.275Z,99.90
2018-07-26T01:57:42.107Z,99.90
2018-07-26T02:00:10.907Z,99.90
2018-07-26T02:02:39.700Z,99.90
2018-07-26T02:05:08.488Z,99.90
2018-07-26T02:07:37.291Z,99.90
2018-07-26T02:10:06.092Z,99.90
2018-07-26T02:12:34.925Z,99.90
2018-07-26T02:15:03.748Z,99.90
2018-07-26T02:17:32.555Z,99.90
2018-07-26T02:20:01.344Z,99.90
2018-07-26T02:22:31.376Z,99.90
2018-07-26T02:25:00.168Z,99.90
2018-07-26T02:27:29.093Z,99.90
2018-07-26T02:29:57.908Z,99.90
2018-07-26T02:32:26.721Z,99.90
2018-07-26T02:34:55.537Z,99.90
2018-07-26T02:37:24.337Z,99.90
2018-07-26T02:42:21.609Z,99.90
2018-07-26T02:44:50.422Z,99.90
2018-07-26T02:47:19.199Z,99.90
2018-07-26T02:49:48.000Z,99.90
2018-07-26T02:52:16.809Z,99.90
2018-07-26T02:54:45.630Z,99.90
2018-07-26T02:57:14.536Z,99.90
2018-07-26T02:59:43.341Z,99.90
2018-07-26T03:04:40.635Z,99.90
2018-07-26T03:07:09.447Z,99.90
2018-07-26T03:09:38.236Z,99.90
2018-07-26T03:12:07.050Z,99.90
2018-07-26T03:14:41.236Z,99.90
2018-07-26T03:17:11.529Z,99.90
2018-07-26T03:19:40.435Z,99.90
2018-07-26T03:22:09.422Z,99.90
2018-07-26T03:24:38.339Z,99.90
2018-07-26T03:27:07.698Z,99.90
2018-07-26T03:32:04.969Z,99.90
2018-07-26T03:34:33.767Z,99.90
2018-07-26T03:37:02.576Z,99.90
2018-07-26T03:39:31.611Z,99.90
2018-07-26T03:42:00.440Z,99.90
2018-07-26T03:44:29.301Z,99.90
2018-07-26T03:46:58.703Z,99.90
2018-07-26T03:49:27.807Z,99.90
2018-07-26T03:51:56.607Z,99.90
2018-07-26T03:54:25.561Z,99.90
2018-07-26T03:56:54.359Z,99.90
2018-07-26T03:59:23.155Z,99.90
2018-07-26T04:01:51.976Z,99.90
2018-07-26T04:04:20.767Z,99.90
2018-07-26T04:06:49.596Z,99.90
2018-07-26T04:09:18.392Z,99.90
2018-07-26T04:11:47.376Z,99.90
2018-07-26T04:14:16.172Z,99.90
2018-07-26T04:16:45.004Z,99.90
2018-07-26T04:19:13.842Z,99.90
2018-07-26T04:21:42.640Z,99.90
2018-07-26T04:24:11.435Z,99.90
2018-07-26T04:29:08.790Z,99.90
2018-07-26T04:31:37.688Z,99.90
2018-07-26T04:34:06.496Z,99.90
2018-07-26T04:39:06.500Z,99.90
2018-07-26T04:41:35.535Z,99.90
2018-07-26T04:44:04.360Z,99.90
2018-07-26T04:46:33.170Z,99.90
2018-07-26T04:49:01.968Z,99.90
2018-07-26T04:51:30.743Z,99.90
2018-07-26T04:53:59.615Z,99.90
2018-07-26T04:56:28.655Z,99.90
2018-07-26T04:58:57.560Z,99.90
2018-07-26T05:01:26.347Z,99.90
2018-07-26T05:03:55.327Z,99.90
2018-07-26T05:06:24.175Z,99.90
2018-07-26T05:08:53.004Z,99.90
2018-07-26T05:11:21.800Z,99.90
2018-07-26T05:13:50.610Z,99.90
2018-07-26T05:16:19.416Z,99.90
2018-07-26T05:18:48.243Z,99.90
2018-07-26T05:21:17.101Z,99.90
2018-07-26T05:23:45.924Z,99.90
2018-07-26T05:26:14.721Z,99.90
2018-07-26T05:28:43.633Z,99.90
2018-07-26T05:31:12.387Z,99.90
2018-07-26T05:33:42.276Z,99.90
2018-07-26T05:36:11.083Z,99.90
2018-07-26T05:38:39.932Z,99.90
2018-07-26T05:41:08.767Z,99.90
2018-07-26T05:43:37.616Z,99.90
2018-07-26T05:46:06.516Z,99.90
2018-07-26T05:48:35.339Z,99.90
2018-07-26T05:51:04.141Z,99.90
2018-07-26T05:53:33.707Z,99.90
2018-07-26T05:56:02.516Z,99.90
2018-07-26T05:58:31.351Z,99.90
2018-07-26T06:01:00.144Z,99.90
2018-07-26T06:03:28.979Z,99.90
2018-07-26T06:05:57.798Z,99.90
2018-07-26T06:08:26.612Z,99.90
2018-07-26T06:10:56.417Z,99.90
2018-07-26T06:13:25.220Z,99.90
2018-07-26T06:15:54.068Z,99.90
2018-07-26T06:18:22.887Z,99.90
2018-07-26T06:20:51.685Z,99.90
2018-07-26T06:23:20.494Z,99.90
2018-07-26T06:25:49.295Z,99.90
2018-07-26T06:28:18.226Z,99.90
2018-07-26T06:30:46.998Z,99.90
2018-07-26T06:33:16.891Z,99.90
2018-07-26T06:35:45.691Z,99.90
2018-07-26T06:38:14.558Z,99.90
2018-07-26T06:40:43.515Z,99.90
2018-07-26T06:43:12.410Z,99.90
2018-07-26T06:45:41.324Z,99.90
2018-07-26T06:48:10.126Z,99.90
2018-07-26T06:50:38.995Z,99.90
2018-07-26T06:53:07.859Z,99.90
2018-07-26T06:55:36.671Z,99.90
2018-07-26T06:58:05.652Z,99.90
2018-07-26T07:00:34.529Z,99.90
2018-07-26T07:03:03.319Z,99.90
2018-07-26T07:05:32.151Z,99.90
2018-07-26T07:08:00.965Z,99.90
2018-07-26T07:10:29.777Z,99.90
2018-07-26T07:12:58.632Z,99.90
2018-07-26T07:15:27.435Z,99.90
2018-07-26T07:17:56.255Z,99.90
2018-07-26T07:20:25.089Z,99.90
2018-07-26T07:22:53.893Z,99.90
2018-07-26T07:25:22.687Z,99.90
2018-07-26T07:27:51.559Z,99.90
2018-07-26T07:30:20.279Z,99.90
2018-07-26T07:32:49.080Z,99.90
2018-07-26T07:35:17.880Z,99.90
2018-07-26T07:37:46.800Z,99.90
2018-07-26T07:40:15.576Z,99.90
2018-07-26T07:42:44.392Z,99.90
2018-07-26T07:45:13.210Z,99.90
2018-07-26T07:47:42.175Z,99.90
2018-07-26T07:50:10.937Z,99.90
2018-07-26T07:52:39.768Z,99.90
2018-07-26T07:57:37.064Z,99.90
2018-07-26T08:00:06.468Z,99.90
2018-07-26T08:02:35.276Z,99.90
2018-07-26T08:05:04.303Z,99.90
2018-07-26T08:07:33.088Z,99.90
2018-07-26T08:10:01.885Z,99.90
2018-07-26T08:12:30.774Z,99.90
2018-07-26T08:14:59.524Z,99.90
2018-07-26T08:17:28.320Z,99.90
2018-07-26T08:19:57.128Z,99.90
2018-07-26T08:22:27.004Z,99.90
2018-07-26T08:24:55.859Z,99.90
2018-07-26T08:27:24.661Z,99.90
2018-07-26T08:29:53.465Z,99.90
2018-07-26T08:32:22.311Z,99.90
2018-07-26T08:34:51.116Z,99.90
2018-07-26T08:37:19.932Z,99.90
2018-07-26T08:39:48.725Z,99.90
2018-07-26T08:42:17.507Z,99.90
2018-07-26T08:44:46.304Z,99.90
2018-07-26T08:47:15.099Z,99.90
2018-07-26T08:49:43.887Z,99.90
2018-07-26T08:52:12.734Z,99.90
2018-07-26T08:54:41.539Z,99.90
2018-07-26T08:57:10.332Z,99.90
2018-07-26T08:59:39.392Z,98.80
2018-07-26T09:02:08.201Z,99.90
2018-07-26T09:04:36.993Z,99.90
2018-07-26T09:07:05.797Z,99.90
2018-07-26T09:09:34.621Z,98.50
2018-07-26T09:12:03.425Z,99.50
2018-07-26T09:14:32.220Z,98.90
2018-07-26T09:17:01.023Z,98.50
2018-07-26T09:19:29.824Z,98.30
2018-07-26T09:21:59.691Z,98.20
2018-07-26T09:24:28.540Z,96.70
2018-07-26T09:29:25.827Z,98.40
2018-07-26T09:31:54.611Z,98.20
2018-07-26T09:34:23.428Z,96.90
2018-07-26T09:36:52.239Z,97.00
2018-07-26T09:39:21.055Z,96.40
2018-07-26T09:41:49.860Z,97.20
2018-07-26T09:44:18.681Z,94.60
2018-07-26T09:46:47.491Z,94.20
2018-07-26T09:49:16.320Z,94.10
2018-07-26T09:51:45.124Z,93.20
2018-07-26T09:54:13.916Z,93.10
2018-07-26T09:56:42.769Z,94.10
2018-07-26T09:59:11.607Z,93.40
2018-07-26T10:01:41.047Z,92.50
2018-07-26T10:04:09.847Z,91.50
2018-07-26T10:06:38.651Z,85.50
2018-07-26T10:09:09.464Z,83.10
2018-07-26T10:11:38.330Z,85.30
2018-07-26T10:14:07.229Z,83.60
2018-07-26T10:16:35.956Z,82.30
2018-07-26T10:19:04.791Z,83.90
2018-07-26T10:21:33.584Z,83.40
2018-07-26T10:24:02.429Z,72.70
2018-07-26T10:26:31.246Z,78.20
2018-07-26T10:29:00.066Z,69.50
2018-07-26T10:31:28.900Z,71.30
2018-07-26T10:33:57.719Z,68.10
2018-07-26T10:36:26.516Z,65.30
2018-07-26T10:38:55.316Z,69.40
2018-07-26T10:43:52.704Z,69.90
2018-07-26T10:46:21.595Z,64.80
2018-07-26T10:48:51.461Z,68.60
2018-07-26T10:51:20.247Z,66.70
2018-07-26T10:53:49.063Z,59.60
2018-07-26T10:58:47.402Z,59.70
2018-07-26T11:01:16.196Z,58.00
2018-07-26T11:03:45.108Z,57.70
2018-07-26T11:06:13.891Z,57.20
2018-07-26T11:08:42.860Z,57.30
2018-07-26T11:11:11.664Z,58.00
2018-07-26T11:13:40.512Z,54.50
2018-07-26T11:16:09.331Z,55.00
2018-07-26T11:18:38.120Z,54.70
2018-07-26T11:21:07.114Z,54.40
2018-07-26T11:23:35.897Z,56.20
2018-07-26T11:26:04.795Z,55.90
2018-07-26T11:28:33.632Z,55.60
2018-07-26T11:31:02.486Z,54.30
2018-07-26T11:33:31.320Z,54.90
2018-07-26T11:36:00.166Z,55.40
2018-07-26T11:38:29.039Z,55.10
2018-07-26T11:40:57.904Z,55.00
2018-07-26T11:43:26.760Z,54.60
2018-07-26T11:45:55.599Z,51.80
2018-07-26T11:48:24.431Z,53.30
2018-07-26T11:50:53.301Z,52.50
2018-07-26T11:53:22.111Z,51.80
2018-07-26T11:55:51.011Z,54.70
2018-07-26T11:58:19.811Z,54.00
2018-07-26T12:00:48.639Z,51.00
2018-07-26T12:03:17.531Z,51.00
2018-07-26T12:05:46.476Z,51.70
2018-07-26T12:08:15.271Z,53.20
2018-07-26T12:10:44.143Z,49.80
2018-07-26T12:13:13.021Z,49.90
2018-07-26T12:15:41.836Z,50.50
2018-07-26T12:18:10.784Z,51.70
2018-07-26T12:20:39.650Z,50.00
2018-07-26T12:23:08.574Z,51.40
2018-07-26T12:25:37.355Z,48.90
2018-07-26T12:28:08.309Z,49.30
2018-07-26T12:30:37.201Z,50.10
2018-07-26T12:33:06.112Z,48.30
2018-07-26T12:38:03.487Z,48.00
2018-07-26T12:40:32.280Z,47.60
2018-07-26T12:43:01.388Z,48.00
2018-07-26T12:45:30.231Z,47.20
2018-07-26T12:47:59.085Z,47.10
2018-07-26T12:50:27.910Z,47.10
2018-07-26T12:52:56.791Z,46.10
2018-07-26T12:55:25.637Z,47.40
2018-07-26T12:57:54.570Z,46.30
2018-07-26T13:00:23.393Z,44.80
2018-07-26T13:02:52.308Z,45.60
2018-07-26T13:05:21.179Z,48.70
2018-07-26T13:07:50.040Z,48.70
2018-07-26T13:10:23.581Z,45.60
2018-07-26T13:12:52.443Z,46.20
2018-07-26T13:15:21.280Z,45.80
2018-07-26T13:17:50.141Z,46.00
2018-07-26T13:22:47.520Z,47.10
2018-07-26T13:25:16.335Z,47.30
2018-07-26T13:27:45.180Z,46.00
2018-07-26T13:30:14.010Z,46.70
2018-07-26T13:32:42.767Z,46.50
2018-07-26T13:35:11.987Z,46.00
2018-07-26T13:37:53.112Z,47.10
2018-07-26T13:40:21.962Z,46.30
2018-07-26T13:42:50.732Z,46.20
2018-07-26T13:45:19.772Z,45.10
2018-07-26T13:47:48.592Z,45.30
2018-07-26T13:50:20.515Z,46.20
2018-07-26T13:52:49.343Z,45.40
2018-07-26T13:55:18.201Z,44.90
2018-07-26T13:57:47.040Z,45.80
2018-07-26T14:00:15.832Z,45.20
2018-07-26T14:02:44.660Z,44.90
2018-07-26T14:05:13.487Z,45.40
2018-07-26T14:07:42.347Z,43.80
2018-07-26T14:10:11.161Z,46.00
2018-07-26T14:12:39.987Z,44.00
2018-07-26T14:15:09.988Z,42.50
2018-07-26T14:17:39.098Z,43.60
2018-07-26T14:20:09.635Z,42.10
2018-07-26T14:22:38.932Z,43.20
2018-07-26T14:25:07.724Z,43.10
2018-07-26T14:27:36.601Z,43.70
2018-07-26T14:30:06.709Z,43.90
2018-07-26T14:32:35.588Z,43.80
2018-07-26T14:35:05.205Z,42.80
2018-07-26T14:37:34.175Z,43.40
2018-07-26T14:40:03.048Z,43.90
2018-07-26T14:42:31.908Z,44.30
2018-07-26T14:45:00.812Z,43.50
2018-07-26T14:47:29.572Z,41.70
2018-07-26T14:49:58.357Z,43.30
2018-07-26T14:52:27.155Z,41.70
2018-07-26T14:54:55.964Z,42.40
2018-07-26T14:57:24.756Z,41.30
2018-07-26T14:59:53.575Z,41.80
2018-07-26T15:02:22.413Z,42.20
2018-07-26T15:04:51.207Z,43.10
2018-07-26T15:07:20.030Z,43.10
2018-07-26T15:09:48.978Z,43.60
2018-07-26T15:12:17.764Z,44.20
2018-07-26T15:14:46.584Z,44.30
2018-07-26T15:17:15.400Z,43.40
2018-07-26T15:19:44.191Z,44.30
2018-07-26T15:22:14.230Z,45.20
2018-07-26T15:24:44.331Z,44.00
2018-07-26T15:27:13.131Z,44.20
2018-07-26T15:32:10.444Z,43.30
2018-07-26T15:34:39.192Z,42.50
2018-07-26T15:37:13.497Z,43.10
2018-07-26T15:39:42.280Z,44.40
2018-07-26T15:42:11.092Z,43.00
2018-07-26T15:44:39.978Z,43.80
2018-07-26T15:47:08.940Z,44.30
2018-07-26T15:49:38.864Z,43.00
2018-07-26T15:52:07.652Z,44.40
2018-07-26T15:54:36.466Z,45.00
2018-07-26T15:57:05.740Z,43.90
2018-07-26T15:59:34.556Z,43.20
2018-07-26T16:02:03.350Z,44.80
2018-07-26T16:04:32.312Z,43.40
2018-07-26T16:07:03.241Z,42.30
2018-07-26T16:09:32.040Z,43.60
2018-07-26T16:12:01.029Z,44.60
2018-07-26T16:14:30.001Z,44.30
2018-07-26T16:16:58.806Z,43.80
2018-07-26T16:19:28.721Z,44.40
2018-07-26T16:21:57.521Z,44.70
2018-07-26T16:24:26.311Z,44.80
2018-07-26T16:26:55.108Z,45.00
2018-07-26T16:29:23.947Z,46.50
2018-07-26T16:31:52.763Z,45.10
2018-07-26T16:34:21.571Z,45.70
2018-07-26T16:39:19.968Z,44.90
2018-07-26T16:41:48.748Z,44.80
2018-07-26T16:44:17.533Z,45.80
2018-07-26T16:46:46.320Z,46.30
2018-07-26T16:49:15.136Z,46.60
2018-07-26T16:51:43.920Z,47.10
2018-07-26T16:54:12.720Z,45.30
2018-07-26T16:56:41.528Z,45.10
2018-07-26T16:59:10.331Z,45.40
2018-07-26T17:01:40.192Z,46.70
2018-07-26T17:04:08.972Z,47.40
2018-07-26T17:06:37.791Z,46.40
2018-07-26T17:09:08.736Z,45.40
2018-07-26T17:11:37.551Z,46.70
2018-07-26T17:14:06.719Z,46.30
2018-07-26T17:16:35.510Z,46.10
2018-07-26T17:19:04.453Z,46.80
2018-07-26T17:21:33.226Z,46.90
2018-07-26T17:24:02.029Z,47.30
2018-07-26T17:26:30.850Z,47.50
2018-07-26T17:29:00.058Z,48.50
2018-07-26T17:33:57.355Z,47.50
2018-07-26T17:36:26.172Z,48.60
2018-07-26T17:38:54.951Z,49.10
2018-07-26T17:41:23.776Z,48.40
2018-07-26T17:43:52.688Z,48.80
2018-07-26T17:46:21.556Z,49.30
2018-07-26T17:48:50.595Z,50.40
2018-07-26T17:51:19.404Z,50.50
2018-07-26T17:53:48.256Z,50.60
2018-07-26T17:56:17.044Z,50.80
2018-07-26T17:58:46.715Z,51.30
2018-07-26T18:01:15.556Z,51.40
2018-07-26T18:03:46.372Z,51.80
2018-07-26T18:06:15.162Z,52.10
2018-07-26T18:08:43.997Z,52.80
2018-07-26T18:11:12.775Z,53.40
2018-07-26T18:13:41.617Z,51.50
2018-07-26T18:16:10.420Z,53.00
2018-07-26T18:18:39.237Z,54.80
2018-07-26T18:21:08.054Z,55.80
2018-07-26T18:23:36.935Z,57.10
2018-07-26T18:26:05.806Z,58.60
2018-07-26T18:28:34.594Z,59.40
2018-07-26T18:31:03.452Z,60.50
2018-07-26T18:33:32.260Z,60.40
2018-07-26T18:36:01.074Z,61.70
2018-07-26T18:38:29.916Z,63.00
2018-07-26T18:40:58.919Z,63.50
2018-07-26T18:43:27.775Z,62.10
2018-07-26T18:45:56.627Z,61.00
2018-07-26T18:48:25.495Z,62.10
2018-07-26T18:50:54.334Z,63.00
2018-07-26T18:53:23.159Z,65.30
2018-07-26T18:55:51.948Z,66.50
2018-07-26T18:58:20.753Z,67.30
2018-07-26T19:00:49.544Z,67.40
2018-07-26T19:03:18.320Z,68.50
2018-07-26T19:05:47.165Z,69.10
2018-07-26T19:08:15.952Z,69.60
2018-07-26T19:10:46.824Z,69.80
2018-07-26T19:13:15.607Z,70.80
2018-07-26T19:15:45.459Z,68.40
2018-07-26T19:18:14.252Z,67.80
2018-07-26T19:20:43.053Z,64.60
2018-07-26T19:23:15.072Z,62.20
2018-07-26T19:25:44.100Z,61.30
2018-07-26T19:28:12.940Z,59.50
2018-07-26T19:30:41.700Z,58.60
2018-07-26T19:38:08.684Z,57.80
2018-07-26T19:40:37.736Z,57.80
2018-07-26T19:43:06.619Z,57.90
2018-07-26T19:45:35.433Z,58.10
2018-07-26T19:48:04.258Z,57.90
2018-07-26T19:50:33.103Z,58.90
2018-07-26T19:53:03.090Z,58.20
2018-07-26T19:55:31.883Z,58.20
2018-07-26T19:58:00.676Z,58.10
2018-07-26T20:00:29.540Z,58.40
2018-07-26T20:02:58.333Z,58.40
2018-07-26T20:05:27.202Z,58.60
2018-07-26T20:07:55.999Z,58.30
2018-07-26T20:10:24.796Z,58.40
2018-07-26T20:12:53.796Z,58.40
2018-07-26T20:15:22.636Z,58.10
2018-07-26T20:17:51.440Z,57.10
2018-07-26T20:22:48.755Z,57.60
2018-07-26T20:25:17.592Z,57.50
2018-07-26T20:27:46.439Z,57.30
2018-07-26T20:30:15.308Z,57.70
2018-07-26T20:32:44.240Z,57.80
2018-07-26T20:35:13.062Z,57.80
2018-07-26T20:37:41.928Z,57.40
2018-07-26T20:40:12.171Z,57.30
2018-07-26T20:45:11.222Z,57.70
2018-07-26T20:47:40.078Z,57.70
2018-07-26T20:50:09.572Z,57.60
2018-07-26T20:52:38.772Z,58.00
2018-07-26T20:55:07.682Z,58.00
2018-07-26T20:57:36.476Z,58.20
2018-07-26T21:00:07.800Z,58.00
2018-07-26T21:02:36.656Z,58.10
2018-07-26T21:05:05.484Z,57.80
2018-07-26T21:10:05.815Z,58.20
2018-07-26T21:12:34.759Z,58.90
2018-07-26T21:15:03.680Z,61.80
2018-07-26T21:17:32.500Z,63.00
2018-07-26T21:20:01.328Z,64.70
2018-07-26T21:22:31.143Z,65.60
2018-07-26T21:25:00.033Z,67.10
2018-07-26T21:27:30.081Z,68.00
2018-07-26T21:29:58.887Z,69.10
2018-07-26T21:32:27.669Z,70.70
2018-07-26T21:34:56.516Z,70.80
2018-07-26T21:37:25.437Z,71.60
2018-07-26T21:39:54.296Z,72.30
2018-07-26T21:42:23.101Z,73.10
2018-07-26T21:44:58.436Z,72.90
2018-07-26T21:47:27.422Z,73.00
2018-07-26T21:49:56.216Z,74.20
2018-07-26T21:52:25.423Z,74.00
2018-07-26T21:54:54.371Z,73.80
2018-07-26T21:57:23.207Z,74.60
2018-07-26T21:59:52.035Z,74.80
2018-07-26T22:04:49.534Z,75.90
2018-07-26T22:07:18.433Z,76.50
2018-07-26T22:09:47.307Z,77.10
2018-07-26T22:12:16.124Z,77.60
2018-07-26T22:14:45.016Z,78.30
2018-07-26T22:17:13.836Z,79.10
2018-07-26T22:22:11.128Z,80.30
2018-07-26T22:24:39.993Z,81.20
2018-07-26T22:27:08.820Z,82.20
2018-07-26T22:29:37.608Z,81.20
2018-07-26T22:32:06.420Z,83.20
2018-07-26T22:34:35.319Z,82.60
2018-07-26T22:37:04.109Z,83.70
2018-07-26T22:39:32.913Z,85.20
2018-07-26T22:42:01.768Z,85.80
2018-07-26T22:44:30.661Z,86.70
2018-07-26T22:46:59.571Z,86.70
2018-07-26T22:49:28.350Z,87.20
2018-07-26T22:51:57.205Z,88.10
2018-07-26T22:54:26.013Z,88.60
2018-07-26T22:56:54.967Z,89.90
2018-07-26T22:59:23.748Z,90.00
2018-07-26T23:04:21.082Z,91.30
2018-07-26T23:06:49.927Z,91.80
2018-07-26T23:09:18.752Z,91.70
2018-07-26T23:11:47.607Z,92.20
2018-07-26T23:14:16.428Z,92.80
2018-07-26T23:16:45.291Z,92.90
2018-07-26T23:19:14.129Z,93.40
2018-07-26T23:21:43.159Z,93.80
2018-07-26T23:24:11.945Z,94.10
2018-07-26T23:26:40.816Z,94.50
2018-07-26T23:29:09.681Z,94.70
2018-07-26T23:31:38.530Z,95.10
2018-07-26T23:34:07.318Z,96.10
2018-07-26T23:36:36.132Z,96.10
2018-07-26T23:39:10.420Z,96.00
2018-07-26T23:44:09.157Z,96.60
2018-07-26T23:49:07.043Z,97.60
2018-07-26T23:51:35.863Z,97.90
2018-07-26T23:54:04.827Z,98.40
2018-07-26T23:56:33.707Z,98.70
2018-07-26T23:59:02.576Z,99.00
